Time;durP1;ratioP1;P1;durP2;ratioP2;P2;SDS_P1;SDS_P2;PMS_P1;PMS_P2;Temp;Humidity;BMP_temperature;BMP_pressure;BME280_temperature;BME280_humidity;BME280_pressure;Samples;Min_cycle;Max_cycle;Signal;HPM_P1;HPM_P2
2021/01/13 00:01:29;;;;;;;8.93;6.30;;;0.30;99.90;;;;;;5007695;28;20198;-74
2021/01/13 00:03:56;;;;;;;6.03;5.03;;;0.40;99.90;;;;;;5006354;28;20241;-74
2021/01/13 00:06:22;;;;;;;8.70;5.47;;;0.40;99.90;;;;;;5007380;28;20925;-74
2021/01/13 00:08:48;;;;;;;7.97;5.90;;;0.40;99.90;;;;;;5007565;28;20207;-74
2021/01/13 00:11:15;;;;;;;4.82;4.32;;;0.40;99.90;;;;;;5007294;28;20230;-75
2021/01/13 00:13:41;;;;;;;8.55;5.45;;;0.50;99.90;;;;;;5006776;28;20575;-75
2021/01/13 00:16:08;;;;;;;7.03;5.57;;;0.50;99.90;;;;;;5007379;28;20210;-74
2021/01/13 00:18:34;;;;;;;7.38;5.25;;;0.60;99.90;;;;;;5007306;28;20206;-75
2021/01/13 00:21:03;;;;;;;4.82;4.30;;;0.60;99.90;;;;;;5007264;28;20198;-75
2021/01/13 00:23:29;;;;;;;5.63;4.35;;;0.60;99.90;;;;;;5007094;28;20206;-74
2021/01/13 00:25:55;;;;;;;5.65;4.30;;;0.70;99.90;;;;;;5007250;28;20210;-74
2021/01/13 00:28:22;;;;;;;7.18;4.82;;;0.70;99.90;;;;;;5007515;28;20206;-74
2021/01/13 00:30:48;;;;;;;4.95;4.45;;;0.70;99.90;;;;;;5006548;28;20955;-74
2021/01/13 00:33:14;;;;;;;5.28;4.70;;;0.70;99.90;;;;;;5005405;28;20333;-74
2021/01/13 00:35:40;;;;;;;5.80;4.50;;;0.80;99.90;;;;;;5007054;28;20218;-74
2021/01/13 00:38:09;;;;;;;5.90;3.90;;;0.80;99.90;;;;;;5006804;28;20198;-74
2021/01/13 00:40:35;;;;;;;5.32;4.68;;;0.80;99.90;;;;;;5007167;28;20215;-74
2021/01/13 00:43:01;;;;;;;4.45;4.00;;;0.70;99.90;;;;;;5006349;28;20206;-74
2021/01/13 00:45:27;;;;;;;4.13;3.72;;;0.70;99.90;;;;;;4993438;28;20226;-74
2021/01/13 00:47:54;;;;;;;5.80;3.97;;;0.70;99.90;;;;;;4970026;28;20254;-74
2021/01/13 00:50:20;;;;;;;4.65;4.15;;;0.70;99.90;;;;;;4967017;28;20251;-74
2021/01/13 00:52:47;;;;;;;7.07;3.88;;;0.80;99.90;;;;;;4983569;28;20357;-74
2021/01/13 00:55:14;;;;;;;6.07;4.10;;;0.80;99.90;;;;;;4981721;28;20588;-74
2021/01/13 00:57:40;;;;;;;4.50;4.10;;;0.80;99.90;;;;;;4976223;28;20199;-74
2021/01/13 01:00:07;;;;;;;5.03;4.10;;;0.80;99.90;;;;;;4977905;28;20199;-74
2021/01/13 01:02:34;;;;;;;5.50;3.72;;;0.80;99.90;;;;;;4972006;28;20204;-74
2021/01/13 01:05:00;;;;;;;5.82;4.28;;;0.80;99.90;;;;;;4967142;28;20231;-75
2021/01/13 01:07:26;;;;;;;5.15;4.22;;;0.90;99.90;;;;;;4967301;28;20612;-75
2021/01/13 01:09:52;;;;;;;5.43;4.10;;;0.90;99.90;;;;;;4966076;28;20216;-75
2021/01/13 01:12:19;;;;;;;5.40;4.57;;;0.90;99.90;;;;;;4965841;28;20207;-75
2021/01/13 01:14:45;;;;;;;4.70;4.07;;;0.90;99.90;;;;;;4966477;28;20222;-75
2021/01/13 01:17:12;;;;;;;8.20;4.22;;;0.90;99.90;;;;;;4966600;28;20227;-74
2021/01/13 01:19:39;;;;;;;6.00;3.85;;;1.00;99.90;;;;;;4966506;28;20682;-75
2021/01/13 01:22:05;;;;;;;4.57;3.75;;;0.90;99.90;;;;;;4965829;28;20211;-74
2021/01/13 01:24:31;;;;;;;7.40;4.30;;;0.90;99.90;;;;;;4966258;28;20227;-75
2021/01/13 01:26:58;;;;;;;3.97;3.55;;;0.90;99.90;;;;;;4970756;28;20203;-75
2021/01/13 01:29:25;;;;;;;5.25;3.75;;;0.90;99.90;;;;;;4985447;28;20674;-75
2021/01/13 01:31:52;;;;;;;7.97;3.97;;;0.90;99.90;;;;;;4985006;28;20211;-75
2021/01/13 01:34:18;;;;;;;5.15;3.22;;;0.90;99.90;;;;;;4985476;28;20228;-75
2021/01/13 01:36:45;;;;;;;4.95;3.15;;;1.00;99.90;;;;;;4985364;28;20203;-75
2021/01/13 01:39:11;;;;;;;7.07;3.67;;;1.00;99.90;;;;;;4971216;28;20196;-75
2021/01/13 01:41:37;;;;;;;5.15;3.10;;;1.00;99.90;;;;;;4965426;28;20242;-75
2021/01/13 01:44:04;;;;;;;4.05;3.08;;;1.00;99.90;;;;;;4965290;28;20778;-74
2021/01/13 01:46:31;;;;;;;3.20;2.90;;;1.00;99.90;;;;;;4965471;28;20770;-75
2021/01/13 01:48:59;;;;;;;3.42;3.05;;;1.10;99.90;;;;;;4965621;28;20203;-75
2021/01/13 01:51:31;;;;;;;9.07;3.42;;;1.10;99.90;;;;;;4965610;28;20234;-75
2021/01/13 01:54:12;;;;;;;5.35;3.25;;;1.10;99.90;;;;;;4965064;28;20231;-75
2021/01/13 01:56:39;;;;;;;3.10;2.80;;;1.10;99.90;;;;;;4984544;28;20223;-75
2021/01/13 01:59:07;;;;;;;5.93;3.00;;;1.10;99.90;;;;;;4985006;28;20203;-75
2021/01/13 02:01:36;;;;;;;3.58;3.22;;;1.10;99.90;;;;;;4985344;28;20195;-75
2021/01/13 02:04:08;;;;;;;5.85;3.30;;;1.10;99.90;;;;;;4984702;28;20718;-75
2021/01/13 02:06:43;;;;;;;6.45;3.38;;;1.10;99.90;;;;;;4985163;28;20199;-74
2021/01/13 02:09:10;;;;;;;3.65;2.90;;;1.00;99.90;;;;;;4984504;28;20226;-75
2021/01/13 02:11:38;;;;;;;4.55;3.05;;;1.10;99.90;;;;;;4964499;28;20722;-75
2021/01/13 02:14:05;;;;;;;8.90;3.97;;;1.00;99.90;;;;;;4967081;28;20231;-75
2021/01/13 02:16:32;;;;;;;3.05;2.75;;;1.10;99.90;;;;;;4965795;28;20196;-75
2021/01/13 02:19:00;;;;;;;3.70;3.20;;;1.10;99.90;;;;;;4965581;28;21206;-75
2021/01/13 02:21:31;;;;;;;4.32;3.50;;;1.10;99.90;;;;;;4965639;28;20268;-75
2021/01/13 02:24:44;;;;;;;4.07;3.35;;;1.00;99.90;;;;;;4966322;28;20650;-75
2021/01/13 02:27:55;;;;;;;3.92;2.80;;;1.00;99.90;;;;;;4965363;28;20215;-75
2021/01/13 02:30:27;;;;;;;4.32;3.05;;;1.00;99.90;;;;;;4983160;28;20218;-75
2021/01/13 02:32:59;;;;;;;6.15;3.65;;;1.00;99.90;;;;;;4977884;28;20203;-75
2021/01/13 02:35:27;;;;;;;3.55;3.22;;;1.00;99.90;;;;;;4968007;28;20220;-75
2021/01/13 02:40:22;;;;;;;3.85;2.90;;;0.90;99.90;;;;;;5006318;28;20234;-75
2021/01/13 02:43:04;;;;;;;5.38;3.80;;;1.00;99.90;;;;;;5007541;28;20253;-73
2021/01/13 02:45:34;;;;;;;7.55;3.55;;;0.90;99.90;;;;;;4992480;28;20219;-74
2021/01/13 02:48:14;;;;;;;4.13;3.60;;;0.90;99.90;;;;;;4988386;28;20283;-75
2021/01/13 02:50:47;;;;;;;5.25;3.97;;;0.90;99.90;;;;;;4988698;28;20219;-75
2021/01/13 02:53:57;;;;;;;3.80;3.50;;;0.90;99.90;;;;;;4988908;28;20207;-72
2021/01/13 02:56:38;;;;;;;4.80;3.70;;;0.80;99.90;;;;;;4989607;28;20318;-74
2021/01/13 02:59:10;;;;;;;5.82;3.80;;;0.80;99.90;;;;;;4989934;28;20195;-73
2021/01/13 03:01:40;;;;;;;8.55;3.63;;;0.80;99.90;;;;;;4992298;28;20261;-73
2021/01/13 03:04:07;;;;;;;4.10;3.70;;;0.80;99.90;;;;;;4992105;28;20230;-74
2021/01/13 03:06:43;;;;;;;7.80;4.43;;;0.80;99.90;;;;;;4992761;28;20682;-74
2021/01/13 03:09:11;;;;;;;5.93;3.85;;;0.70;99.90;;;;;;4973313;28;20676;-75
2021/01/13 03:11:38;;;;;;;4.60;3.65;;;0.70;99.90;;;;;;4972655;28;20224;-73
2021/01/13 03:14:20;;;;;;;4.35;3.50;;;0.80;99.90;;;;;;4972824;28;20224;-73
2021/01/13 03:16:55;;;;;;;4.28;3.58;;;0.80;99.90;;;;;;4971524;28;20204;-74
2021/01/13 03:19:29;;;;;;;10.43;3.90;;;0.80;99.90;;;;;;4972885;28;20611;-73
2021/01/13 03:22:03;;;;;;;8.20;3.50;;;0.90;99.90;;;;;;4972091;28;20204;-73
2021/01/13 03:24:41;;;;;;;4.68;4.10;;;0.80;99.90;;;;;;4989120;28;20226;-72
2021/01/13 03:27:10;;;;;;;4.47;3.85;;;0.90;99.90;;;;;;4999761;28;20222;-72
2021/01/13 03:29:41;;;;;;;4.05;3.33;;;0.80;99.90;;;;;;4997913;28;20683;-74
2021/01/13 03:32:09;;;;;;;5.63;3.95;;;0.80;99.90;;;;;;4993400;28;20559;-74
2021/01/13 03:34:45;;;;;;;4.80;3.80;;;0.80;99.90;;;;;;4990784;28;20241;-74
2021/01/13 03:37:23;;;;;;;3.97;3.00;;;0.80;99.90;;;;;;4992189;28;20230;-75
2021/01/13 03:39:52;;;;;;;4.13;3.22;;;0.80;99.90;;;;;;4992123;28;20261;-74
2021/01/13 03:42:20;;;;;;;4.90;3.35;;;0.80;99.90;;;;;;4992044;28;20587;-74
2021/01/13 03:44:48;;;;;;;4.13;3.10;;;0.70;99.90;;;;;;5010530;28;20226;-74
2021/01/13 03:47:47;;;;;;;5.53;3.65;;;0.70;99.90;;;;;;5011495;28;20681;-75
2021/01/13 03:50:24;;;;;;;6.80;3.33;;;0.60;99.90;;;;;;5011087;28;20222;-73
2021/01/13 03:53:03;;;;;;;4.15;3.15;;;0.60;99.90;;;;;;5011262;28;20573;-73
2021/01/13 03:55:32;;;;;;;7.82;3.63;;;0.60;99.90;;;;;;5011741;28;20222;-73
2021/01/13 03:58:13;;;;;;;5.70;3.35;;;0.60;99.90;;;;;;5011537;28;20210;-73
2021/01/13 04:00:57;;;;;;;6.72;3.00;;;0.60;99.90;;;;;;5011534;28;20198;-76
2021/01/13 04:03:27;;;;;;;4.05;3.63;;;0.50;99.90;;;;;;5011259;28;20233;-74
2021/01/13 04:06:05;;;;;;;7.57;3.75;;;0.50;99.90;;;;;;5011270;28;20203;-72
2021/01/13 04:08:36;;;;;;;3.22;2.92;;;0.50;99.90;;;;;;5011640;28;20206;-73
2021/01/13 04:11:05;;;;;;;3.83;3.45;;;0.50;99.90;;;;;;5011242;28;20222;-74
2021/01/13 04:13:40;;;;;;;8.43;3.75;;;0.50;99.90;;;;;;5010646;28;20264;-74
2021/01/13 04:16:08;;;;;;;3.75;3.45;;;0.40;99.90;;;;;;5011038;28;20204;-73
2021/01/13 04:18:35;;;;;;;5.82;3.47;;;0.40;99.90;;;;;;5011305;28;20206;-73
2021/01/13 04:21:02;;;;;;;6.13;3.22;;;0.50;99.90;;;;;;5010809;28;20195;-73
2021/01/13 04:23:29;;;;;;;3.80;2.83;;;0.50;99.90;;;;;;5010572;28;20210;-75
2021/01/13 04:25:57;;;;;;;6.78;3.50;;;0.50;99.90;;;;;;5011010;28;20209;-72
2021/01/13 04:28:24;;;;;;;4.82;3.42;;;0.50;99.90;;;;;;5011702;28;20210;-72
2021/01/13 04:30:51;;;;;;;3.67;2.80;;;0.50;99.90;;;;;;5010932;28;20288;-74
2021/01/13 04:33:19;;;;;;;3.78;2.75;;;0.50;99.90;;;;;;5010361;28;20213;-76
2021/01/13 04:35:45;;;;;;;4.18;3.00;;;0.40;99.90;;;;;;5009751;28;20582;-73
2021/01/13 04:38:17;;;;;;;3.65;3.10;;;0.40;99.90;;;;;;5004617;28;20210;-74
2021/01/13 04:40:49;;;;;;;5.55;3.35;;;0.50;99.90;;;;;;4990014;28;20192;-72
2021/01/13 04:43:22;;;;;;;3.85;3.45;;;0.50;99.90;;;;;;4986775;28;20203;-72
2021/01/13 04:45:50;;;;;;;3.50;3.20;;;0.50;99.90;;;;;;4989967;28;20250;-74
2021/01/13 04:48:18;;;;;;;3.85;3.40;;;0.40;99.90;;;;;;4990079;28;20824;-74
2021/01/13 04:50:46;;;;;;;3.75;2.58;;;0.50;99.90;;;;;;4989785;28;20301;-75
2021/01/13 04:53:14;;;;;;;4.50;3.13;;;0.50;99.90;;;;;;4987093;28;20202;-75
2021/01/13 04:55:49;;;;;;;4.97;3.60;;;0.50;99.90;;;;;;4990507;28;20215;-75
2021/01/13 04:59:01;;;;;;;5.45;3.58;;;0.50;99.90;;;;;;4987955;28;20250;-76
2021/01/13 05:02:05;;;;;;;6.70;3.40;;;0.50;99.90;;;;;;4990691;28;20567;-76
2021/01/13 05:04:58;;;;;;;4.00;3.60;;;0.50;99.90;;;;;;4990701;28;20258;-75
2021/01/13 05:07:37;;;;;;;4.60;2.80;;;0.60;99.90;;;;;;4990431;28;20214;-76
2021/01/13 05:10:09;;;;;;;8.32;3.63;;;0.60;99.90;;;;;;4989088;28;20195;-74
2021/01/13 05:12:55;;;;;;;5.35;3.50;;;0.60;99.90;;;;;;4988158;28;20612;-74
2021/01/13 05:15:27;;;;;;;3.80;3.22;;;0.60;99.90;;;;;;4988756;28;20219;-74
2021/01/13 05:18:07;;;;;;;5.40;3.70;;;0.70;99.90;;;;;;4987425;28;20254;-75
2021/01/13 05:20:37;;;;;;;4.15;3.33;;;0.70;99.90;;;;;;4987344;28;20187;-74
2021/01/13 05:23:04;;;;;;;7.28;3.65;;;0.70;99.90;;;;;;4989283;28;20203;-74
2021/01/13 05:25:42;;;;;;;4.70;3.25;;;0.70;99.90;;;;;;4989400;28;20225;-75
2021/01/13 05:28:13;;;;;;;15.52;4.72;;;0.70;99.90;;;;;;4988769;28;20198;-74
2021/01/13 05:30:41;;;;;;;5.80;3.30;;;0.70;99.90;;;;;;4990117;28;20227;-74
2021/01/13 05:33:10;;;;;;;5.53;3.42;;;0.70;99.90;;;;;;4987567;28;20628;-75
2021/01/13 05:35:41;;;;;;;7.45;4.55;;;0.60;99.90;;;;;;4990046;28;20330;-74
2021/01/13 05:38:13;;;;;;;6.28;3.78;;;0.60;99.90;;;;;;4990211;28;20581;-73
2021/01/13 05:40:44;;;;;;;4.45;3.90;;;0.50;99.90;;;;;;4990402;28;20674;-76
2021/01/13 05:43:11;;;;;;;4.15;3.75;;;0.60;99.90;;;;;;4989687;28;20203;-74
2021/01/13 05:45:39;;;;;;;5.28;3.65;;;0.50;99.90;;;;;;4990035;28;20226;-74
2021/01/13 05:48:17;;;;;;;5.47;3.97;;;0.60;99.90;;;;;;4989411;28;20214;-74
2021/01/13 05:50:46;;;;;;;5.95;3.70;;;0.70;99.90;;;;;;4989794;28;20227;-74
2021/01/13 05:53:13;;;;;;;5.63;3.40;;;0.70;99.90;;;;;;4988899;28;20214;-74
2021/01/13 05:55:46;;;;;;;5.25;3.40;;;0.70;99.90;;;;;;4989875;28;20223;-74
2021/01/13 05:58:14;;;;;;;5.28;4.00;;;0.70;99.90;;;;;;4989291;28;20349;-74
2021/01/13 06:00:40;;;;;;;3.83;3.50;;;0.70;99.90;;;;;;4989724;28;20199;-76
2021/01/13 06:03:10;;;;;;;6.40;3.53;;;0.70;99.90;;;;;;4988561;28;20218;-73
2021/01/13 06:05:50;;;;;;;3.53;3.03;;;0.60;99.90;;;;;;4989243;28;20223;-73
2021/01/13 06:08:17;;;;;;;3.47;3.08;;;0.60;99.90;;;;;;4989447;28;20273;-74
2021/01/13 06:10:45;;;;;;;5.80;4.32;;;0.60;99.90;;;;;;4989242;28;20223;-75
2021/01/13 06:13:17;;;;;;;4.45;3.70;;;0.50;99.90;;;;;;4988284;28;20202;-74
2021/01/13 06:15:45;;;;;;;9.93;4.22;;;0.50;99.90;;;;;;4989253;28;20301;-74
2021/01/13 06:18:14;;;;;;;6.45;3.60;;;0.40;99.90;;;;;;4988617;28;20745;-74
2021/01/13 06:20:41;;;;;;;5.80;4.00;;;0.40;99.90;;;;;;4989233;28;20207;-75
2021/01/13 06:23:12;;;;;;;5.03;3.28;;;0.30;99.90;;;;;;4987897;28;20211;-74
2021/01/13 06:25:42;;;;;;;6.13;3.60;;;0.30;99.90;;;;;;4989178;28;20227;-74
2021/01/13 06:28:27;;;;;;;6.32;3.60;;;0.20;99.90;;;;;;4988684;28;20207;-74
2021/01/13 06:31:05;;;;;;;4.28;3.45;;;0.20;99.90;;;;;;4988794;28;20223;-76
2021/01/13 06:34:00;;;;;;;8.63;4.07;;;0.10;99.90;;;;;;4988410;28;20209;-74
2021/01/13 06:36:43;;;;;;;4.60;4.18;;;0.10;99.90;;;;;;4989057;28;20281;-74
2021/01/13 06:39:12;;;;;;;7.90;3.63;;;0.10;99.90;;;;;;4988511;28;20215;-74
2021/01/13 06:41:45;;;;;;;4.80;3.40;;;0.00;99.90;;;;;;4988445;28;20203;-74
2021/01/13 06:44:12;;;;;;;5.45;3.80;;;0.00;99.90;;;;;;4987944;28;20219;-74
2021/01/13 06:46:38;;;;;;;4.95;3.25;;;0.00;99.90;;;;;;4988808;28;20202;-74
2021/01/13 06:49:15;;;;;;;4.95;3.30;;;0.00;99.90;;;;;;4987994;28;20195;-74
2021/01/13 06:51:43;;;;;;;6.22;4.20;;;0.00;99.90;;;;;;4987759;28;20227;-74
2021/01/13 06:54:12;;;;;;;3.80;3.13;;;-0.10;99.90;;;;;;4986731;28;20230;-74
2021/01/13 06:56:47;;;;;;;6.40;3.35;;;0.00;99.90;;;;;;4988821;28;20244;-74
2021/01/13 06:59:15;;;;;;;7.10;3.80;;;-0.10;99.90;;;;;;4988921;28;20206;-75
2021/01/13 07:01:52;;;;;;;5.28;3.67;;;-0.10;99.90;;;;;;4988942;28;20199;-76
2021/01/13 07:04:18;;;;;;;5.38;4.25;;;-0.20;99.90;;;;;;4988101;28;20596;-73
2021/01/13 07:07:02;;;;;;;5.47;4.00;;;-0.30;99.90;;;;;;4988925;28;20210;-74
2021/01/13 07:09:37;;;;;;;5.15;3.60;;;-0.30;99.90;;;;;;4989314;28;20207;-74
2021/01/13 07:12:12;;;;;;;5.63;3.65;;;-0.30;99.90;;;;;;4988435;28;20226;-74
2021/01/13 07:14:40;;;;;;;5.53;3.80;;;-0.30;99.90;;;;;;4988378;28;20229;-74
2021/01/13 07:17:13;;;;;;;7.97;3.38;;;-0.30;99.90;;;;;;4988542;28;20207;-75
2021/01/13 07:19:45;;;;;;;4.25;3.72;;;-0.30;99.90;;;;;;4988419;28;20203;-74
2021/01/13 07:22:11;;;;;;;5.05;3.65;;;-0.30;99.90;;;;;;4987619;28;20199;-75
2021/01/13 07:24:40;;;;;;;5.25;3.55;;;-0.30;99.90;;;;;;4988729;28;20227;-74
2021/01/13 07:27:06;;;;;;;5.90;3.92;;;-0.30;99.90;;;;;;4987976;28;20215;-74
2021/01/13 07:29:33;;;;;;;5.90;3.80;;;-0.30;99.90;;;;;;4987526;28;20212;-74
2021/01/13 07:31:59;;;;;;;5.35;3.45;;;-0.30;99.90;;;;;;4995056;28;20541;-74
2021/01/13 07:34:32;;;;;;;8.70;4.32;;;-0.30;99.90;;;;;;5008133;28;20581;-74
2021/01/13 07:37:01;;;;;;;7.25;4.15;;;-0.20;99.90;;;;;;5008062;28;20211;-75
2021/01/13 07:39:43;;;;;;;6.75;4.10;;;-0.20;99.90;;;;;;5008497;28;20273;-73
2021/01/13 07:42:26;;;;;;;5.13;4.63;;;-0.30;99.90;;;;;;5009907;28;20202;-74
2021/01/13 07:45:04;;;;;;;8.27;3.83;;;-0.30;99.90;;;;;;4999682;28;20292;-74
2021/01/13 07:47:40;;;;;;;5.20;4.63;;;-0.30;99.90;;;;;;4992184;28;20207;-75
2021/01/13 07:50:08;;;;;;;7.55;4.85;;;-0.20;99.90;;;;;;4992078;28;20210;-76
2021/01/13 07:52:38;;;;;;;7.00;3.97;;;-0.20;99.90;;;;;;4991720;28;20199;-73
2021/01/13 07:55:16;;;;;;;9.38;4.40;;;-0.10;99.90;;;;;;4991207;28;20227;-75
2021/01/13 07:57:51;;;;;;;7.90;4.13;;;-0.10;99.90;;;;;;5009303;28;20817;-73
2021/01/13 08:00:31;;;;;;;6.70;4.63;;;0.00;99.90;;;;;;5011305;28;20201;-74
2021/01/13 08:03:31;;;;;;;7.97;4.70;;;0.00;99.90;;;;;;5009256;28;20206;-75
2021/01/13 08:06:27;;;;;;;5.22;4.65;;;0.10;99.90;;;;;;4992080;28;20211;-75
2021/01/13 08:09:13;;;;;;;5.13;3.97;;;0.20;99.90;;;;;;4991323;28;20234;-75
2021/01/13 08:12:24;;;;;;;6.57;4.45;;;0.40;99.90;;;;;;4990861;28;20281;-74
2021/01/13 08:15:44;;;;;;;4.30;3.40;;;0.60;99.90;;;;;;4992309;28;20223;-74
2021/01/13 08:18:57;;;;;;;7.03;3.80;;;0.90;99.90;;;;;;4991631;28;20210;-74
2021/01/13 08:21:33;;;;;;;5.93;3.65;;;0.90;99.90;;;;;;4990765;28;20203;-73
2021/01/13 08:24:06;;;;;;;9.45;3.97;;;0.90;99.90;;;;;;4992042;28;20227;-73
2021/01/13 08:26:33;;;;;;;5.57;3.88;;;0.80;99.90;;;;;;4999683;28;20211;-74
2021/01/13 08:29:01;;;;;;;5.28;3.67;;;0.90;99.90;;;;;;4999855;28;20236;-74
2021/01/13 08:31:29;;;;;;;6.43;3.22;;;1.30;99.90;;;;;;4999238;28;20231;-72
2021/01/13 08:34:06;;;;;;;4.72;3.95;;;1.60;99.90;;;;;;5003110;28;20226;-73
2021/01/13 08:36:35;;;;;;;6.45;3.10;;;1.70;99.90;;;;;;5011745;28;20579;-73
2021/01/13 08:39:15;;;;;;;8.07;3.55;;;1.70;99.90;;;;;;5081266;23;20250;-76
2021/01/13 08:41:42;;;;;;;4.65;3.30;;;1.50;99.90;;;;;;5002093;28;20198;-75
2021/01/13 08:44:11;;;;;;;5.65;3.15;;;1.40;99.90;;;;;;5010674;28;20226;-75
2021/01/13 08:47:00;;;;;;;5.65;3.80;;;1.20;99.90;;;;;;5009901;28;20206;-74
2021/01/13 08:49:29;;;;;;;4.05;3.65;;;1.40;99.90;;;;;;5011533;28;20213;-74
2021/01/13 08:52:14;;;;;;;6.28;4.20;;;2.00;99.90;;;;;;5010763;28;20702;-76
2021/01/13 08:54:41;;;;;;;9.60;3.45;;;2.30;99.90;;;;;;4997304;28;20231;-76
2021/01/13 08:57:09;;;;;;;8.18;3.95;;;2.50;99.90;;;;;;4991412;28;20217;-74
2021/01/13 08:59:38;;;;;;;5.22;3.97;;;2.60;99.90;;;;;;4980824;28;20217;-75
2021/01/13 09:02:07;;;;;;;10.40;4.10;;;2.70;99.90;;;;;;4990637;28;20203;-76
2021/01/13 09:04:51;;;;;;;6.97;3.50;;;2.70;99.90;;;;;;5002558;28;20277;-75
2021/01/13 09:07:20;;;;;;;8.30;3.97;;;2.60;99.90;;;;;;5010819;28;20209;-76
2021/01/13 09:09:59;;;;;;;6.30;3.17;;;2.60;99.90;;;;;;5007263;28;20301;-76
2021/01/13 09:12:44;;;;;;;9.10;3.83;;;2.60;99.90;;;;;;4990872;28;20219;-76
2021/01/13 09:15:18;;;;;;;5.05;3.70;;;2.60;99.90;;;;;;4991772;28;20565;-75
2021/01/13 09:17:50;;;;;;;4.45;3.65;;;2.60;99.90;;;;;;4990841;28;20207;-76
2021/01/13 09:20:22;;;;;;;4.15;3.15;;;2.60;99.90;;;;;;4990980;28;20203;-75
2021/01/13 09:22:52;;;;;;;6.80;3.90;;;2.60;99.90;;;;;;4989748;28;20413;-75
2021/01/13 09:25:20;;;;;;;5.60;3.85;;;2.70;99.90;;;;;;4990758;28;20722;-75
2021/01/13 09:27:49;;;;;;;4.70;2.80;;;2.80;99.90;;;;;;4990646;28;20285;-74
2021/01/13 09:30:36;;;;;;;3.33;2.97;;;2.80;99.90;;;;;;4990200;28;20203;-73
2021/01/13 09:33:08;;;;;;;6.38;3.47;;;2.70;99.90;;;;;;4989879;28;20211;-74
2021/01/13 09:35:37;;;;;;;5.00;3.25;;;2.60;99.90;;;;;;5009301;28;20576;-75
2021/01/13 09:38:08;;;;;;;4.05;3.00;;;2.40;99.90;;;;;;5010008;28;20213;-74
2021/01/13 09:40:56;;;;;;;5.55;3.50;;;2.30;99.90;;;;;;5010021;28;20198;-75
2021/01/13 09:43:35;;;;;;;3.45;2.70;;;2.30;99.90;;;;;;5009083;28;20214;-75
2021/01/13 09:46:03;;;;;;;4.28;2.97;;;2.20;99.90;;;;;;5009689;28;20272;-76
2021/01/13 09:48:31;;;;;;;4.10;2.83;;;2.10;99.90;;;;;;5009611;28;20217;-75
2021/01/13 09:50:59;;;;;;;4.10;3.10;;;2.10;99.90;;;;;;5009833;28;20264;-76
2021/01/13 09:53:31;;;;;;;3.80;3.05;;;2.10;99.90;;;;;;5006127;28;20207;-76
2021/01/13 09:56:08;;;;;;;5.90;3.05;;;2.10;99.90;;;;;;4989880;28;20297;-77
2021/01/13 09:58:40;;;;;;;4.05;3.03;;;2.10;99.90;;;;;;4991089;28;20246;-76
2021/01/13 10:01:13;;;;;;;5.78;3.10;;;2.10;99.90;;;;;;4989526;28;20199;-76
2021/01/13 10:03:41;;;;;;;4.35;2.78;;;2.00;99.90;;;;;;4993623;28;20546;-76
2021/01/13 10:06:19;;;;;;;4.20;3.33;;;2.10;99.90;;;;;;5010038;28;20270;-76
2021/01/13 10:08:46;;;;;;;9.80;3.33;;;2.10;99.90;;;;;;5010217;28;20218;-77
2021/01/13 10:11:14;;;;;;;7.47;3.00;;;2.10;99.90;;;;;;5009803;28;20354;-74
2021/01/13 10:13:42;;;;;;;5.90;3.20;;;2.10;99.90;;;;;;5007973;28;20202;-76
2021/01/13 10:16:10;;;;;;;5.65;2.80;;;2.10;99.90;;;;;;5009971;28;20724;-76
2021/01/13 10:18:48;;;;;;;3.78;3.38;;;2.30;99.90;;;;;;5006804;28;20685;-75
2021/01/13 10:21:15;;;;;;;3.50;2.00;;;2.30;99.90;;;;;;4989508;28;20782;-75
2021/01/13 10:23:43;;;;;;;7.57;3.30;;;2.40;99.90;;;;;;4988774;28;20218;-76
2021/01/13 10:26:10;;;;;;;3.10;2.90;;;2.60;99.90;;;;;;4989982;28;20226;-76
2021/01/13 10:28:37;;;;;;;8.32;3.00;;;2.60;99.90;;;;;;4989379;28;20214;-76
2021/01/13 10:31:05;;;;;;;3.38;2.38;;;2.60;99.90;;;;;;4989401;28;20315;-76
2021/01/13 10:33:49;;;;;;;2.78;2.58;;;2.70;99.90;;;;;;4992371;28;20210;-76
2021/01/13 10:36:41;;;;;;;3.25;2.88;;;2.90;99.90;;;;;;5009313;28;20450;-76
2021/01/13 10:39:11;;;;;;;3.83;3.00;;;3.10;99.90;;;;;;5009388;28;20217;-76
2021/01/13 10:41:39;;;;;;;4.05;2.80;;;2.90;99.90;;;;;;5008521;28;20202;-76
2021/01/13 10:44:10;;;;;;;3.80;2.90;;;3.00;99.90;;;;;;5008301;28;20227;-75
2021/01/13 10:46:58;;;;;;;3.80;2.65;;;3.00;99.90;;;;;;5008984;28;20260;-74
2021/01/13 10:49:30;;;;;;;4.05;3.15;;;3.00;99.90;;;;;;5008690;28;20206;-76
2021/01/13 10:51:57;;;;;;;3.45;2.50;;;3.20;99.90;;;;;;5008237;28;20585;-76
2021/01/13 10:54:26;;;;;;;3.80;2.75;;;3.60;99.90;;;;;;5009425;28;20230;-76
2021/01/13 10:56:55;;;;;;;2.97;2.10;;;3.80;99.90;;;;;;5008679;28;20210;-76
2021/01/13 10:59:22;;;;;;;3.75;2.40;;;3.90;99.90;;;;;;5009063;28;20213;-75
2021/01/13 11:01:51;;;;;;;4.53;2.70;;;3.60;99.90;;;;;;4999402;28;20667;-75
2021/01/13 11:04:27;;;;;;;3.47;2.50;;;3.60;99.90;;;;;;4989182;28;20274;-75
2021/01/13 11:07:03;;;;;;;5.88;2.70;;;3.70;99.90;;;;;;4989306;28;20628;-76
2021/01/13 11:09:29;;;;;;;2.75;2.30;;;3.80;99.90;;;;;;4989621;28;20583;-76
2021/01/13 11:11:57;;;;;;;7.10;3.00;;;4.10;99.90;;;;;;4988055;28;20234;-74
2021/01/13 11:14:38;;;;;;;4.30;2.35;;;4.00;99.90;;;;;;4998418;28;20218;-76
2021/01/13 11:17:12;;;;;;;8.13;2.78;;;3.90;99.90;;;;;;5011501;28;20210;-75
2021/01/13 11:19:40;;;;;;;5.10;2.55;;;3.80;99.90;;;;;;5012965;28;20203;-76
2021/01/13 11:22:07;;;;;;;6.72;2.53;;;3.70;99.90;;;;;;5012371;28;20624;-76
2021/01/13 11:24:42;;;;;;;4.10;2.30;;;3.70;99.90;;;;;;5012649;28;20218;-75
2021/01/13 11:27:12;;;;;;;3.92;2.55;;;4.60;99.90;;;;;;5000908;28;20693;-77
2021/01/13 11:29:41;;;;;;;5.03;2.30;;;5.80;99.90;;;;;;4994109;28;20203;-77
2021/01/13 11:32:13;;;;;;;3.05;2.20;;;6.50;99.90;;;;;;4994452;28;20236;-74
2021/01/13 11:34:40;;;;;;;4.28;2.53;;;6.70;99.90;;;;;;4993969;28;20710;-75
2021/01/13 11:37:40;;;;;;;3.78;2.60;;;6.70;99.90;;;;;;4994239;28;20226;-75
2021/01/13 11:40:09;;;;;;;3.50;2.10;;;6.60;99.90;;;;;;4994115;28;20207;-74
2021/01/13 11:43:13;;;;;;;4.22;3.13;;;6.80;99.90;;;;;;4993596;28;20203;-76
2021/01/13 11:45:53;;;;;;;6.53;3.60;;;6.80;99.90;;;;;;4994234;28;20222;-77
2021/01/13 11:48:30;;;;;;;3.67;2.40;;;6.10;99.90;;;;;;4994125;28;20203;-76
2021/01/13 11:51:00;;;;;;;5.80;2.20;;;5.90;99.90;;;;;;4994016;28;20241;-74
2021/01/13 11:53:28;;;;;;;3.80;2.30;;;5.60;99.90;;;;;;5012065;28;20237;-76
2021/01/13 11:55:55;;;;;;;6.47;2.60;;;5.40;99.90;;;;;;5000240;28;20611;-76
2021/01/13 11:58:21;;;;;;;3.60;3.00;;;5.10;99.90;;;;;;4993605;28;20237;-74
2021/01/13 12:00:48;;;;;;;3.67;1.95;;;5.30;99.90;;;;;;4993251;28;20199;-76
2021/01/13 12:03:19;;;;;;;2.38;1.88;;;5.50;99.90;;;;;;5006641;28;20206;-77
2021/01/13 12:05:47;;;;;;;2.50;2.03;;;5.70;99.90;;;;;;4985421;28;20268;-74
2021/01/13 12:08:15;;;;;;;3.33;1.90;;;6.20;99.90;;;;;;4993223;28;20207;-74
2021/01/13 12:10:43;;;;;;;5.50;1.88;;;6.50;99.90;;;;;;4993798;28;20234;-74
2021/01/13 12:13:10;;;;;;;3.35;1.90;;;6.40;99.90;;;;;;4992272;28;20210;-76
2021/01/13 12:15:47;;;;;;;2.78;1.77;;;6.20;99.90;;;;;;4995945;28;20226;-74
2021/01/13 12:18:18;;;;;;;4.75;1.90;;;5.90;99.90;;;;;;5011396;28;20585;-76
2021/01/13 12:20:44;;;;;;;3.00;1.60;;;5.60;99.90;;;;;;5011316;28;20753;-74
2021/01/13 12:23:17;;;;;;;2.63;1.65;;;5.50;99.90;;;;;;5011409;28;20213;-75
2021/01/13 12:25:43;;;;;;;2.35;1.52;;;5.30;99.90;;;;;;4971930;28;20219;-74
2021/01/13 12:28:09;;;;;;;2.25;1.50;;;5.00;99.90;;;;;;4980312;28;20199;-76
2021/01/13 12:30:35;;;;;;;6.03;2.47;;;4.70;99.90;;;;;;4991858;28;20266;-76
2021/01/13 12:33:05;;;;;;;3.25;1.90;;;4.70;99.90;;;;;;4991162;28;20211;-75
2021/01/13 12:35:31;;;;;;;1.45;1.20;;;4.70;99.90;;;;;;4992213;28;20671;-75
2021/01/13 12:37:58;;;;;;;1.85;1.67;;;4.70;99.90;;;;;;4992860;28;20211;-76
2021/01/13 12:40:31;;;;;;;2.22;1.90;;;5.00;99.90;;;;;;4993166;28;20200;-76
2021/01/13 12:43:09;;;;;;;1.95;1.40;;;5.40;99.90;;;;;;4991914;28;20222;-77
2021/01/13 12:45:35;;;;;;;4.90;1.45;;;5.70;99.90;;;;;;4991641;28;20818;-76
2021/01/13 12:48:03;;;;;;;4.00;1.50;;;5.80;99.90;;;;;;4992696;28;20203;-76
2021/01/13 12:50:29;;;;;;;4.03;1.75;;;5.70;99.90;;;;;;4992715;28;20651;-75
2021/01/13 12:52:55;;;;;;;4.60;1.90;;;5.50;99.90;;;;;;4990433;28;20310;-77
2021/01/13 12:55:21;;;;;;;3.33;1.40;;;5.60;99.90;;;;;;4991707;28;20646;-76
2021/01/13 12:57:48;;;;;;;3.55;1.65;;;5.70;99.90;;;;;;4991230;28;20207;-75
2021/01/13 13:00:15;;;;;;;3.03;1.90;;;5.70;99.90;;;;;;4995322;28;20214;-76
2021/01/13 13:02:41;;;;;;;4.32;1.30;;;5.90;99.90;;;;;;4989882;28;20203;-76
2021/01/13 13:05:10;;;;;;;3.83;2.35;;;5.80;99.90;;;;;;4999090;28;20732;-75
2021/01/13 13:07:37;;;;;;;2.42;1.77;;;5.40;99.90;;;;;;5009007;28;20206;-76
2021/01/13 13:10:04;;;;;;;4.78;1.63;;;5.10;99.90;;;;;;4993663;28;20574;-75
2021/01/13 13:12:30;;;;;;;3.50;1.38;;;4.80;99.90;;;;;;5002236;28;20218;-77
2021/01/13 13:14:56;;;;;;;2.75;1.65;;;4.90;99.90;;;;;;4999578;28;20270;-76
2021/01/13 13:17:22;;;;;;;1.65;1.30;;;5.80;99.90;;;;;;5007552;28;20575;-76
2021/01/13 13:19:49;;;;;;;2.33;1.55;;;6.90;99.90;;;;;;4991135;28;20207;-77
2021/01/13 13:22:16;;;;;;;4.15;2.00;;;8.00;99.90;;;;;;4990807;28;20600;-76
2021/01/13 13:24:42;;;;;;;5.40;1.83;;;8.30;99.90;;;;;;4998073;28;20230;-75